createdAt,value
2018-10-21T00:00:10.280Z,7.09
2018-10-21T00:01:10.520Z,7.15
2018-10-21T00:02:10.031Z,7.19
2018-10-21T00:03:10.413Z,7.18
2018-10-21T00:04:10.481Z,7.3
2018-10-21T00:05:10.510Z,7.16
2018-10-21T00:06:10.451Z,7.21
2018-10-21T00:07:10.183Z,7.27
2018-10-21T00:08:10.422Z,7.22
2018-10-21T00:09:10.595Z,7.3
2018-10-21T00:10:10.142Z,7.34
2018-10-21T00:11:10.389Z,7.26
2018-10-21T00:12:10.116Z,7.36
2018-10-21T00:13:10.360Z,7.34
2018-10-21T00:14:10.351Z,7.3
2018-10-21T00:15:10.701Z,7.27
2018-10-21T00:16:10.317Z,7.41
2018-10-21T00:17:10.056Z,7.36
2018-10-21T00:18:10.040Z,7.4
2018-10-21T00:19:10.284Z,7.49
2018-10-21T00:20:10.281Z,7.45
2018-10-21T00:21:10.562Z,7.4
2018-10-21T00:22:09.995Z,7.41
2018-10-21T00:23:09.972Z,7.45
2018-10-21T00:24:10.221Z,7.4
2018-10-21T00:25:09.951Z,7.49
2018-10-21T00:26:10.190Z,7.39
2018-10-21T00:27:10.438Z,7.51
2018-10-21T00:28:10.178Z,7.44
2018-10-21T00:29:10.190Z,7.45
2018-10-21T00:30:09.883Z,7.45
2018-10-21T00:31:10.163Z,7.61
2018-10-21T00:32:09.861Z,7.49
2018-10-21T00:33:10.017Z,7.41
2018-10-21T00:34:10.097Z,7.52
2018-10-21T00:35:09.567Z,7.56
2018-10-21T00:36:09.807Z,7.41
2018-10-21T00:37:09.794Z,7.49
2018-10-21T00:38:09.782Z,7.45
2018-10-21T00:39:10.359Z,7.47
2018-10-21T00:40:09.758Z,7.48
2018-10-21T00:41:09.745Z,7.52
2018-10-21T00:42:09.990Z,7.52
2018-10-21T00:43:09.979Z,7.51
2018-10-21T00:44:09.962Z,7.56
2018-10-21T00:45:09.878Z,7.49
2018-10-21T00:46:09.683Z,7.48
2018-10-21T00:47:09.679Z,7.56
2018-10-21T00:48:09.915Z,7.52
2018-10-21T00:49:09.643Z,7.52
2018-10-21T00:50:09.884Z,7.55
2018-10-21T00:51:10.098Z,7.49
2018-10-21T00:52:09.601Z,7.55
2018-10-21T00:53:09.593Z,7.52
2018-10-21T00:54:09.835Z,7.52
2018-10-21T00:55:09.602Z,7.54
2018-10-21T00:56:09.554Z,7.49
2018-10-21T00:57:09.985Z,7.54
2018-10-21T00:58:09.786Z,7.54
2018-10-21T00:59:09.511Z,7.51
2018-10-21T01:00:09.769Z,7.51
2018-10-21T01:01:09.750Z,7.54
2018-10-21T01:02:09.480Z,7.51
2018-10-21T01:03:09.634Z,7.54
2018-10-21T01:04:09.848Z,7.52
2018-10-21T01:05:09.442Z,7.54
2018-10-21T01:06:09.424Z,7.56
2018-10-21T01:07:09.668Z,7.48
2018-10-21T01:08:09.663Z,7.55
2018-10-21T01:09:09.830Z,7.55
2018-10-21T01:10:09.381Z,7.56
2018-10-21T01:11:09.617Z,7.54
2018-10-21T01:12:09.607Z,7.54
2018-10-21T01:13:09.338Z,7.47
2018-10-21T01:14:09.579Z,7.51
2018-10-21T01:15:09.405Z,7.49
2018-10-21T01:16:09.560Z,7.54
2018-10-21T01:17:09.287Z,7.49
2018-10-21T01:18:09.286Z,7.54
2018-10-21T01:19:09.260Z,7.52
2018-10-21T01:20:08.996Z,7.52
2018-10-21T01:21:09.796Z,7.55
2018-10-21T01:22:09.482Z,7.54
2018-10-21T01:23:09.469Z,7.54
2018-10-21T01:24:09.461Z,7.52
2018-10-21T01:25:08.929Z,7.58
2018-10-21T01:26:09.429Z,7.56
2018-10-21T01:27:09.651Z,7.54
2018-10-21T01:28:09.408Z,7.55
2018-10-21T01:29:09.390Z,7.51
2018-10-21T01:30:09.383Z,7.58
2018-10-21T01:31:09.365Z,7.61
2018-10-21T01:32:09.356Z,7.51
2018-10-21T01:33:09.672Z,7.49
2018-10-21T01:34:09.074Z,7.52
2018-10-21T01:35:09.317Z,7.51
2018-10-21T01:36:09.518Z,7.61
2018-10-21T01:37:09.211Z,7.59
2018-10-21T01:38:09.690Z,7.61
2018-10-21T01:39:09.558Z,7.59
2018-10-21T01:40:08.995Z,7.68
2018-10-21T01:41:09.240Z,7.67
2018-10-21T01:42:08.969Z,7.61
2018-10-21T01:43:08.961Z,7.61
2018-10-21T01:44:09.204Z,7.55
2018-10-21T01:45:09.451Z,7.51
2018-10-21T01:46:09.178Z,7.48
2018-10-21T01:47:08.908Z,7.51
2018-10-21T01:48:08.913Z,7.49
2018-10-21T01:49:09.147Z,7.41
2018-10-21T01:50:08.874Z,7.48
2018-10-21T01:51:09.302Z,7.4
2018-10-21T01:52:09.104Z,7.41
2018-10-21T01:53:08.833Z,7.48
2018-10-21T01:54:09.081Z,7.59
2018-10-21T01:55:09.064Z,7.41
2018-10-21T01:56:09.056Z,7.56
2018-10-21T01:57:09.383Z,7.48
2018-10-21T01:58:08.772Z,7.4
2018-10-21T01:59:09.014Z,7.44
2018-10-21T02:00:08.748Z,7.49
2018-10-21T02:01:08.734Z,7.49
2018-10-21T02:02:08.981Z,7.49
2018-10-21T02:03:09.301Z,7.44
2018-10-21T02:04:08.950Z,7.52
2018-10-21T02:05:08.937Z,7.55
2018-10-21T02:06:08.932Z,7.47
2018-10-21T02:07:08.913Z,7.63
2018-10-21T02:08:08.644Z,7.49
2018-10-21T02:09:09.101Z,7.58
2018-10-21T02:10:08.877Z,7.56
2018-10-21T02:11:08.609Z,7.47
2018-10-21T02:12:08.337Z,7.56
2018-10-21T02:13:09.060Z,7.59
2018-10-21T02:14:08.636Z,7.58
2018-10-21T02:15:08.782Z,7.58
2018-10-21T02:16:08.802Z,7.68
2018-10-21T02:17:08.533Z,7.64
2018-10-21T02:18:08.778Z,7.58
2018-10-21T02:19:08.769Z,7.59
2018-10-21T02:20:08.746Z,7.71
2018-10-21T02:21:08.583Z,7.56
2018-10-21T02:22:08.468Z,7.64
2018-10-21T02:23:08.474Z,7.58
2018-10-21T02:24:08.447Z,7.63
2018-10-21T02:25:08.429Z,7.61
2018-10-21T02:26:08.455Z,7.64
2018-10-21T02:27:08.809Z,7.61
2018-10-21T02:28:08.823Z,7.71
2018-10-21T02:29:08.392Z,7.67
2018-10-21T02:30:08.631Z,7.63
2018-10-21T02:31:08.361Z,7.59
2018-10-21T02:32:08.347Z,7.61
2018-10-21T02:33:09.031Z,7.59
2018-10-21T02:34:08.324Z,7.59
2018-10-21T02:35:08.565Z,7.61
2018-10-21T02:36:08.301Z,7.61
2018-10-21T02:37:08.542Z,7.71
2018-10-21T02:38:08.525Z,7.71
2018-10-21T02:39:08.414Z,7.73
2018-10-21T02:40:08.505Z,7.71
2018-10-21T02:41:08.231Z,7.8
2018-10-21T02:42:08.478Z,7.77
2018-10-21T02:43:08.463Z,7.73
2018-10-21T02:44:08.455Z,7.82
2018-10-21T02:45:08.680Z,7.83
2018-10-21T02:46:08.169Z,7.77
2018-10-21T02:47:08.416Z,7.83
2018-10-21T02:48:08.146Z,7.82
2018-10-21T02:49:08.396Z,7.89
2018-10-21T02:50:08.121Z,7.78
2018-10-21T02:51:08.217Z,7.75
2018-10-21T02:52:08.363Z,7.82
2018-10-21T02:53:08.337Z,7.78
2018-10-21T02:54:08.325Z,7.83
2018-10-21T02:55:07.803Z,7.78
2018-10-21T02:56:08.303Z,7.82
2018-10-21T02:57:08.460Z,7.78
2018-10-21T02:58:08.276Z,7.78
2018-10-21T02:59:08.016Z,7.8
2018-10-21T03:00:07.999Z,7.82
2018-10-21T03:01:08.237Z,7.86
2018-10-21T03:02:08.229Z,7.86
2018-10-21T03:03:08.113Z,7.8
2018-10-21T03:04:08.207Z,7.86
2018-10-21T03:05:07.941Z,7.83
2018-10-21T03:06:07.928Z,7.8
2018-10-21T03:07:08.169Z,7.83
2018-10-21T03:08:08.161Z,7.78
2018-10-21T03:09:07.714Z,7.75
2018-10-21T03:10:07.882Z,7.78
2018-10-21T03:11:08.122Z,7.77
2018-10-21T03:12:07.849Z,7.77
2018-10-21T03:13:08.097Z,7.75
2018-10-21T03:14:08.078Z,7.86
2018-10-21T03:15:08.355Z,7.77
2018-10-21T03:16:08.057Z,7.8
2018-10-21T03:17:07.783Z,7.8
2018-10-21T03:18:07.794Z,7.77
2018-10-21T03:19:08.023Z,7.8
2018-10-21T03:20:07.748Z,7.82
2018-10-21T03:21:08.319Z,7.8
2018-10-21T03:22:07.980Z,7.8
2018-10-21T03:23:07.966Z,7.8
2018-10-21T03:24:07.958Z,7.83
2018-10-21T03:25:07.685Z,7.83
2018-10-21T03:26:07.675Z,7.8
2018-10-21T03:27:07.747Z,7.78
2018-10-21T03:28:07.653Z,7.8
2018-10-21T03:29:07.896Z,7.78
2018-10-21T03:30:07.626Z,7.82
2018-10-21T03:31:07.902Z,7.8
2018-10-21T03:32:07.874Z,7.8
2018-10-21T03:33:08.303Z,7.78
2018-10-21T03:34:07.855Z,7.83
2018-10-21T03:35:07.828Z,7.77
2018-10-21T03:36:07.559Z,7.82
2018-10-21T03:37:07.805Z,7.82
2018-10-21T03:38:07.523Z,7.77
2018-10-21T03:39:07.839Z,7.75
2018-10-21T03:40:08.049Z,7.8
2018-10-21T03:41:07.494Z,7.82
2018-10-21T03:42:07.728Z,7.83
2018-10-21T03:43:07.205Z,7.78
2018-10-21T03:44:07.450Z,7.8
2018-10-21T03:45:07.437Z,7.83
2018-10-21T03:46:08.051Z,7.83
2018-10-21T03:47:07.671Z,7.85
2018-10-21T03:48:07.401Z,7.77
2018-10-21T03:49:07.667Z,7.77
2018-10-21T03:50:07.376Z,7.82
2018-10-21T03:51:07.617Z,7.78
2018-10-21T03:52:07.729Z,7.85
2018-10-21T03:53:07.592Z,7.85
2018-10-21T03:54:07.327Z,7.95
2018-10-21T03:55:07.314Z,7.82
2018-10-21T03:56:07.560Z,7.86
2018-10-21T03:57:07.286Z,7.89
2018-10-21T03:58:07.798Z,7.89
2018-10-21T03:59:07.265Z,7.91
2018-10-21T04:00:07.267Z,7.88
2018-10-21T04:01:07.496Z,7.85
2018-10-21T04:02:07.226Z,7.96
2018-10-21T04:03:07.540Z,7.85
2018-10-21T04:04:07.356Z,7.91
2018-10-21T04:05:07.450Z,7.88
2018-10-21T04:06:07.449Z,7.83
2018-10-21T04:07:07.420Z,7.85
2018-10-21T04:08:07.154Z,7.91
2018-10-21T04:09:07.141Z,7.91
2018-10-21T04:10:07.655Z,7.93
2018-10-21T04:11:07.374Z,7.83
2018-10-21T04:12:07.108Z,7.89
2018-10-21T04:13:07.093Z,7.86
2018-10-21T04:14:07.106Z,7.86
2018-10-21T04:15:06.810Z,7.88
2018-10-21T04:16:07.239Z,7.89
2018-10-21T04:17:07.297Z,7.89
2018-10-21T04:18:07.029Z,7.92
2018-10-21T04:19:07.281Z,7.91
2018-10-21T04:20:07.268Z,7.89
2018-10-21T04:21:06.993Z,7.92
2018-10-21T04:22:07.570Z,7.89
2018-10-21T04:23:06.966Z,7.91
2018-10-21T04:24:06.696Z,7.91
2018-10-21T04:25:06.689Z,7.85
2018-10-21T04:26:07.189Z,7.91
2018-10-21T04:27:06.917Z,7.85
2018-10-21T04:28:07.403Z,7.92
2018-10-21T04:29:06.638Z,7.89
2018-10-21T04:30:06.887Z,7.88
2018-10-21T04:31:07.142Z,7.82
2018-10-21T04:32:07.118Z,7.82
2018-10-21T04:33:07.104Z,7.95
2018-10-21T04:34:06.934Z,7.91
2018-10-21T04:35:06.845Z,7.92
2018-10-21T04:36:06.807Z,7.8
2018-10-21T04:37:07.054Z,7.8
2018-10-21T04:38:06.786Z,7.78
2018-10-21T04:39:06.778Z,7.85
2018-10-21T04:40:06.513Z,7.78
2018-10-21T04:41:07.000Z,7.91
2018-10-21T04:42:06.476Z,7.78
2018-10-21T04:43:06.988Z,7.86
2018-10-21T04:44:06.713Z,7.89
2018-10-21T04:45:06.449Z,7.8
2018-10-21T04:46:06.818Z,7.82
2018-10-21T04:47:07.726Z,7.8
2018-10-21T04:48:06.661Z,7.77
2018-10-21T04:49:06.391Z,7.86
2018-10-21T04:50:06.378Z,7.77
2018-10-21T04:51:06.623Z,7.86
2018-10-21T04:52:06.748Z,7.75
2018-10-21T04:53:06.601Z,7.8
2018-10-21T04:54:06.839Z,7.78
2018-10-21T04:55:06.593Z,7.77
2018-10-21T04:56:06.828Z,7.8
2018-10-21T04:57:06.811Z,7.85
2018-10-21T04:58:06.998Z,7.8
2018-10-21T04:59:06.526Z,7.82
2018-10-21T05:00:06.779Z,7.77
2018-10-21T05:01:06.497Z,7.75
2018-10-21T05:02:06.488Z,7.8
2018-10-21T05:03:06.731Z,7.83
2018-10-21T05:04:06.582Z,7.78
2018-10-21T05:05:06.705Z,7.8
2018-10-21T05:06:06.451Z,7.78
2018-10-21T05:07:06.426Z,7.85
2018-10-21T05:08:06.673Z,7.78
2018-10-21T05:09:06.659Z,7.8
2018-10-21T05:10:06.821Z,7.83
2018-10-21T05:11:06.383Z,7.78
2018-10-21T05:12:06.626Z,7.8
2018-10-21T05:13:06.617Z,7.77
2018-10-21T05:14:06.343Z,7.86
2018-10-21T05:15:06.706Z,7.8
2018-10-21T05:16:06.938Z,7.86
2018-10-21T05:17:06.303Z,7.86
2018-10-21T05:18:06.558Z,7.86
2018-10-21T05:19:06.278Z,7.77
2018-10-21T05:20:06.010Z,7.83
2018-10-21T05:21:06.512Z,7.77
2018-10-21T05:22:06.780Z,7.77
2018-10-21T05:23:06.229Z,7.82
2018-10-21T05:24:06.914Z,7.77
2018-10-21T05:25:06.470Z,7.82
2018-10-21T05:26:06.453Z,7.86
2018-10-21T05:27:06.445Z,7.82
2018-10-21T05:28:06.674Z,7.95
2018-10-21T05:29:06.419Z,7.92
2018-10-21T05:30:06.139Z,7.78
2018-10-21T05:31:06.395Z,7.83
2018-10-21T05:32:06.373Z,7.82
2018-10-21T05:33:06.117Z,7.83
2018-10-21T05:34:06.186Z,7.82
2018-10-21T05:35:06.337Z,7.83
2018-10-21T05:36:05.810Z,7.92
2018-10-21T05:37:06.311Z,7.86
2018-10-21T05:38:06.569Z,7.88
2018-10-21T05:39:06.033Z,7.83
2018-10-21T05:40:06.555Z,7.83
2018-10-21T05:41:06.010Z,7.82
2018-10-21T05:42:06.261Z,7.82
2018-10-21T05:43:05.979Z,7.78
2018-10-21T05:44:05.976Z,7.86
2018-10-21T05:45:05.963Z,7.93
2018-10-21T05:46:06.084Z,7.92
2018-10-21T05:47:06.392Z,7.88
2018-10-21T05:48:06.194Z,7.82
2018-10-21T05:49:06.163Z,7.98
2018-10-21T05:50:05.898Z,7.91
2018-10-21T05:51:06.139Z,7.93
2018-10-21T05:52:06.040Z,7.96
2018-10-21T05:53:06.112Z,7.93
2018-10-21T05:54:05.859Z,7.95
2018-10-21T05:55:06.099Z,8.03
2018-10-21T05:56:05.873Z,7.93
2018-10-21T05:57:05.809Z,7.95
2018-10-21T05:58:05.677Z,7.86
2018-10-21T05:59:06.054Z,7.99
2018-10-21T06:00:06.034Z,7.92
2018-10-21T06:01:05.765Z,7.85
2018-10-21T06:02:06.004Z,7.93
2018-10-21T06:03:06.287Z,7.98
2018-10-21T06:04:06.288Z,7.98
2018-10-21T06:05:05.710Z,7.98
2018-10-21T06:06:05.704Z,8.04
2018-10-21T06:07:05.683Z,7.98
2018-10-21T06:08:05.670Z,7.96
2018-10-21T06:09:05.915Z,7.98
2018-10-21T06:10:06.171Z,7.96
2018-10-21T06:11:05.891Z,8.03
2018-10-21T06:12:05.622Z,7.99
2018-10-21T06:13:05.869Z,8.03
2018-10-21T06:14:05.860Z,8.01
2018-10-21T06:15:05.605Z,8.03
2018-10-21T06:16:05.344Z,7.96
2018-10-21T06:17:05.816Z,8.01
2018-10-21T06:18:05.551Z,7.98
2018-10-21T06:19:05.790Z,7.96
2018-10-21T06:20:05.779Z,8.04
2018-10-21T06:21:05.770Z,8.01
2018-10-21T06:22:05.679Z,8.06
2018-10-21T06:23:05.490Z,7.99
2018-10-21T06:24:05.733Z,8.09
2018-10-21T06:25:05.247Z,8.07
2018-10-21T06:26:05.449Z,8.04
2018-10-21T06:27:05.438Z,8.07
2018-10-21T06:28:05.692Z,8.07
2018-10-21T06:29:05.670Z,8.09
2018-10-21T06:30:05.405Z,8.17
2018-10-21T06:31:05.454Z,8.13
2018-10-21T06:32:05.645Z,8.14
2018-10-21T06:33:05.744Z,8.17
2018-10-21T06:34:05.612Z,8.16
2018-10-21T06:35:05.338Z,8.17
2018-10-21T06:36:05.331Z,8.16
2018-10-21T06:37:05.579Z,8.22
2018-10-21T06:38:05.563Z,8.26
2018-10-21T06:39:05.693Z,8.24
2018-10-21T06:40:05.539Z,8.26
2018-10-21T06:41:05.264Z,8.22
2018-10-21T06:42:05.255Z,8.24
2018-10-21T06:43:05.497Z,8.29
2018-10-21T06:44:05.249Z,8.22
2018-10-21T06:45:05.103Z,8.19
2018-10-21T06:46:05.209Z,8.26
2018-10-21T06:47:04.933Z,8.25
2018-10-21T06:48:05.179Z,8.32
2018-10-21T06:49:05.179Z,8.21
2018-10-21T06:50:05.167Z,8.25
2018-10-21T06:51:05.314Z,8.29
2018-10-21T06:52:05.391Z,8.17
2018-10-21T06:53:05.377Z,8.22
2018-10-21T06:54:05.106Z,8.22
2018-10-21T06:55:05.352Z,8.17
2018-10-21T06:56:05.341Z,8.21
2018-10-21T06:57:05.795Z,8.32
2018-10-21T06:58:05.061Z,8.25
2018-10-21T06:59:05.303Z,8.19
2018-10-21T07:00:05.034Z,8.28
2018-10-21T07:01:04.761Z,8.29
2018-10-21T07:02:05.269Z,8.29
2018-10-21T07:03:05.261Z,8.29
2018-10-21T07:04:05.489Z,8.29
2018-10-21T07:05:05.530Z,8.34
2018-10-21T07:06:04.960Z,8.31
2018-10-21T07:07:05.206Z,8.36
2018-10-21T07:08:04.944Z,8.42
2018-10-21T07:09:05.182Z,8.44
2018-10-21T07:10:05.326Z,8.53
2018-10-21T07:11:05.161Z,8.58
2018-10-21T07:12:04.887Z,8.71
2018-10-21T07:13:04.876Z,8.71
2018-10-21T07:14:05.128Z,8.85
2018-10-21T07:15:04.897Z,9
2018-10-21T07:16:05.434Z,8.95
2018-10-21T07:17:05.081Z,8.94
2018-10-21T07:18:04.815Z,8.97
2018-10-21T07:19:05.063Z,8.97
2018-10-21T07:20:04.799Z,9
2018-10-21T07:21:04.780Z,8.97
2018-10-21T07:22:04.896Z,9.03
2018-10-21T07:23:04.755Z,9
2018-10-21T07:24:05.003Z,9.03
2018-10-21T07:25:04.731Z,8.97
2018-10-21T07:26:04.734Z,8.95
2018-10-21T07:27:04.711Z,9.01
2018-10-21T07:28:05.298Z,9.04
2018-10-21T07:29:04.946Z,9.03
2018-10-21T07:30:04.948Z,9
2018-10-21T07:31:04.925Z,9.11
2018-10-21T07:32:04.650Z,9.03
2018-10-21T07:33:04.897Z,9.11
2018-10-21T07:34:05.017Z,9.12
2018-10-21T07:35:04.371Z,9.16
2018-10-21T07:36:04.608Z,9.19
2018-10-21T07:37:04.596Z,9.2
2018-10-21T07:38:04.600Z,9.2
2018-10-21T07:39:04.828Z,9.34
2018-10-21T07:40:04.652Z,9.39
2018-10-21T07:41:04.546Z,9.3
2018-10-21T07:42:04.794Z,9.44
2018-10-21T07:43:04.265Z,9.48
2018-10-21T07:44:04.777Z,9.57
2018-10-21T07:45:04.502Z,9.53
2018-10-21T07:46:04.572Z,9.56
2018-10-21T07:47:04.477Z,9.45
2018-10-21T07:48:04.726Z,9.44
2018-10-21T07:49:04.527Z,9.41
2018-10-21T07:50:04.702Z,9.29
2018-10-21T07:51:04.689Z,9.37
2018-10-21T07:52:04.524Z,9.48
2018-10-21T07:53:04.671Z,9.57
2018-10-21T07:54:04.397Z,9.53
2018-10-21T07:55:04.466Z,9.57
2018-10-21T07:56:04.377Z,9.66
2018-10-21T07:57:04.105Z,9.72
2018-10-21T07:58:04.436Z,9.8
2018-10-21T07:59:04.596Z,9.9
2018-10-21T08:00:04.597Z,9.96
2018-10-21T08:01:04.945Z,10
2018-10-21T08:02:04.310Z,9.93
2018-10-21T08:03:04.299Z,9.92
2018-10-21T08:04:04.356Z,9.92
2018-10-21T08:05:04.535Z,9.93
2018-10-21T08:06:04.264Z,9.99
2018-10-21T08:07:04.256Z,9.92
2018-10-21T08:08:04.242Z,9.88
2018-10-21T08:09:04.495Z,9.81
2018-10-21T08:10:04.349Z,9.8
2018-10-21T08:11:03.959Z,9.84
2018-10-21T08:12:04.195Z,9.92
2018-10-21T08:13:04.194Z,9.78
2018-10-21T08:14:04.177Z,9.77
2018-10-21T08:15:04.545Z,9.75
2018-10-21T08:16:04.301Z,9.8
2018-10-21T08:17:04.152Z,9.81
2018-10-21T08:18:04.137Z,9.81
2018-10-21T08:19:04.121Z,9.82
2018-10-21T08:20:04.156Z,9.75
2018-10-21T08:21:04.458Z,9.78
2018-10-21T08:22:04.144Z,9.72
2018-10-21T08:23:03.823Z,9.71
2018-10-21T08:24:04.068Z,9.72
2018-10-21T08:25:04.340Z,9.66
2018-10-21T08:26:04.047Z,9.57
2018-10-21T08:27:04.048Z,9.62
2018-10-21T08:28:04.434Z,9.7
2018-10-21T08:29:04.275Z,9.74
2018-10-21T08:30:03.747Z,9.78
2018-10-21T08:31:03.991Z,9.85
2018-10-21T08:32:03.978Z,9.81
2018-10-21T08:33:04.226Z,9.81
2018-10-21T08:34:04.419Z,9.89
2018-10-21T08:35:03.948Z,9.98
2018-10-21T08:36:03.759Z,9.99
2018-10-21T08:37:04.193Z,10.02
2018-10-21T08:38:04.188Z,10.03
2018-10-21T08:39:04.167Z,10.17
2018-10-21T08:40:04.377Z,10.29
2018-10-21T08:41:03.884Z,10.32
2018-10-21T08:42:04.138Z,10.42
2018-10-21T08:43:03.862Z,10.54
2018-10-21T08:44:03.851Z,10.55
2018-10-21T08:45:04.108Z,10.7
2018-10-21T08:46:04.425Z,10.76
2018-10-21T08:47:04.085Z,11.02
2018-10-21T08:48:03.810Z,10.97
2018-10-21T08:49:04.249Z,11.03
2018-10-21T08:50:03.601Z,11.05
2018-10-21T08:51:03.779Z,11.09
2018-10-21T08:52:04.191Z,11.13
2018-10-21T08:53:03.760Z,11.38
2018-10-21T08:54:04.008Z,11.45
2018-10-21T08:55:04.139Z,11.57
2018-10-21T08:56:04.475Z,11.67
2018-10-21T08:57:03.988Z,11.67
2018-10-21T08:58:04.092Z,11.64
2018-10-21T08:59:03.964Z,11.66
2018-10-21T09:00:03.955Z,11.59
2018-10-21T09:01:04.127Z,11.52
2018-10-21T09:02:04.168Z,11.45
2018-10-21T09:03:03.666Z,11.39
2018-10-21T09:04:04.076Z,11.3
2018-10-21T09:05:03.647Z,11.27
2018-10-21T09:06:03.636Z,11.13
2018-10-21T09:07:04.011Z,11.18
2018-10-21T09:08:03.867Z,11.18
2018-10-21T09:09:03.857Z,11.06
2018-10-21T09:10:04.221Z,11.08
2018-10-21T09:11:03.810Z,11.12
2018-10-21T09:12:03.882Z,11.03
2018-10-21T09:13:03.933Z,10.97
2018-10-21T09:14:03.812Z,11.02
2018-10-21T09:15:03.662Z,10.98
2018-10-21T09:16:03.641Z,11.09
2018-10-21T09:17:03.777Z,11.18
2018-10-21T09:18:03.768Z,11.3
2018-10-21T09:19:03.565Z,11.42
2018-10-21T09:20:03.753Z,11.56
2018-10-21T09:21:03.486Z,11.6
2018-10-21T09:22:03.657Z,11.59
2018-10-21T09:23:03.726Z,11.56
2018-10-21T09:24:03.714Z,11.53
2018-10-21T09:25:03.866Z,11.46
2018-10-21T09:26:03.695Z,11.35
2018-10-21T09:27:03.686Z,11.27
2018-10-21T09:28:03.839Z,11.06
2018-10-21T09:29:03.671Z,11.15
2018-10-21T09:30:03.658Z,11.06
2018-10-21T09:31:03.805Z,10.9
2018-10-21T09:32:03.632Z,10.77
2018-10-21T09:33:03.372Z,10.65
2018-10-21T09:34:03.759Z,10.55
2018-10-21T09:35:03.607Z,10.52
2018-10-21T09:36:03.339Z,10.41
2018-10-21T09:37:03.473Z,10.39
2018-10-21T09:38:03.317Z,10.26
2018-10-21T09:39:03.565Z,10.1
2018-10-21T09:40:03.716Z,10.02
2018-10-21T09:41:03.035Z,9.96
2018-10-21T09:42:03.365Z,10.02
2018-10-21T09:43:03.640Z,10
2018-10-21T09:44:02.999Z,9.89
2018-10-21T09:45:03.248Z,9.82
2018-10-21T09:46:03.333Z,9.8
2018-10-21T09:47:03.226Z,9.74
2018-10-21T09:48:03.481Z,9.72
2018-10-21T09:49:03.552Z,9.66
2018-10-21T09:50:03.910Z,9.71
2018-10-21T09:51:03.441Z,9.77
2018-10-21T09:52:03.574Z,9.96
2018-10-21T09:53:03.166Z,9.99
2018-10-21T09:54:03.154Z,10.18
2018-10-21T09:55:03.654Z,10.28
2018-10-21T09:56:03.390Z,10.49
2018-10-21T09:57:03.123Z,10.69
2018-10-21T09:58:03.520Z,10.88
2018-10-21T09:59:03.108Z,11.02
2018-10-21T10:00:02.835Z,11.21
2018-10-21T10:01:03.161Z,11.43
2018-10-21T10:02:03.329Z,11.48
2018-10-21T10:03:03.314Z,11.56
2018-10-21T10:04:03.438Z,11.61
2018-10-21T10:05:03.435Z,11.64
2018-10-21T10:06:03.290Z,11.64
2018-10-21T10:07:03.547Z,11.68
2018-10-21T10:08:03.007Z,11.78
2018-10-21T10:09:02.996Z,11.81
2018-10-21T10:10:02.754Z,12.05
2018-10-21T10:11:02.724Z,12.1
2018-10-21T10:12:02.971Z,12.13
2018-10-21T10:13:03.058Z,12.2
2018-10-21T10:14:02.951Z,12.19
2018-10-21T10:15:03.202Z,12.18
2018-10-21T10:16:03.276Z,12.2
2018-10-21T10:17:03.178Z,12.33
2018-10-21T10:18:03.171Z,12.44
2018-10-21T10:19:03.360Z,12.55
2018-10-21T10:20:02.894Z,12.58
2018-10-21T10:21:03.149Z,12.58
2018-10-21T10:22:03.299Z,12.28
2018-10-21T10:23:03.120Z,12.19
2018-10-21T10:24:03.482Z,12.04
2018-10-21T10:25:03.224Z,11.76
2018-10-21T10:26:03.091Z,11.64
2018-10-21T10:27:03.087Z,11.61
2018-10-21T10:28:02.911Z,11.49
2018-10-21T10:29:03.076Z,11.51
2018-10-21T10:30:03.055Z,11.41
2018-10-21T10:31:02.837Z,11.28
2018-10-21T10:32:02.781Z,11.3
2018-10-21T10:33:03.027Z,11.21
2018-10-21T10:34:02.850Z,11.12
2018-10-21T10:35:03.009Z,11
2018-10-21T10:36:02.826Z,10.97
2018-10-21T10:37:02.840Z,11.03
2018-10-21T10:38:02.977Z,10.98
2018-10-21T10:39:02.715Z,11.02
2018-10-21T10:40:02.512Z,11.15
2018-10-21T10:41:02.960Z,11.08
2018-10-21T10:42:03.043Z,11.12
2018-10-21T10:43:03.163Z,11.2
2018-10-21T10:44:02.926Z,11.18
2018-10-21T10:45:02.913Z,11.23
2018-10-21T10:46:02.712Z,11.3
2018-10-21T10:47:02.897Z,11.41
2018-10-21T10:48:02.887Z,11.38
2018-10-21T10:49:02.935Z,11.59
2018-10-21T10:50:02.605Z,11.61
2018-10-21T10:51:02.858Z,11.66
2018-10-21T10:52:02.989Z,11.67
2018-10-21T10:53:03.288Z,11.76
2018-10-21T10:54:02.573Z,11.88
2018-10-21T10:55:03.026Z,11.89
2018-10-21T10:56:02.805Z,11.89
2018-10-21T10:57:02.542Z,11.88
2018-10-21T10:58:02.886Z,11.75
2018-10-21T10:59:02.521Z,11.57
2018-10-21T11:00:03.721Z,11.41
2018-10-21T11:01:02.958Z,11.31
2018-10-21T11:02:02.496Z,11.12
2018-10-21T11:03:02.744Z,11.13
2018-10-21T11:04:02.939Z,11.06
2018-10-21T11:05:02.727Z,10.95
2018-10-21T11:06:02.710Z,11
2018-10-21T11:07:02.550Z,11.08
2018-10-21T11:08:02.699Z,11.12
2018-10-21T11:09:02.686Z,11.12
2018-10-21T11:10:02.837Z,11.24
2018-10-21T11:11:02.675Z,11.34
2018-10-21T11:12:02.401Z,11.45
2018-10-21T11:13:02.803Z,11.35
2018-10-21T11:14:02.383Z,11.48
2018-10-21T11:15:02.624Z,11.52
2018-10-21T11:16:02.704Z,11.57
2018-10-21T11:17:02.604Z,11.66
2018-10-21T11:18:02.593Z,11.67
2018-10-21T11:19:02.681Z,11.66
2018-10-21T11:20:02.575Z,11.67
2018-10-21T11:21:02.569Z,11.71
2018-10-21T11:22:02.805Z,11.67
2018-10-21T11:23:02.295Z,11.85
2018-10-21T11:24:02.538Z,11.85
2018-10-21T11:25:02.304Z,11.97
2018-10-21T11:26:02.266Z,12.04
2018-10-21T11:27:02.519Z,12.1
2018-10-21T11:28:02.550Z,12.11
2018-10-21T11:29:02.489Z,12.22
2018-10-21T11:30:02.226Z,12.22
2018-10-21T11:31:02.549Z,12.22
2018-10-21T11:32:02.219Z,12.22
2018-10-21T11:33:02.449Z,12.19
2018-10-21T11:34:02.575Z,12.13
2018-10-21T11:35:02.439Z,12.16
2018-10-21T11:36:02.171Z,12.18
2018-10-21T11:37:02.672Z,12.15
2018-10-21T11:38:02.408Z,12.13
2018-10-21T11:39:02.395Z,12.19
2018-10-21T11:40:02.448Z,12.13
2018-10-21T11:41:02.382Z,12.22
2018-10-21T11:42:02.368Z,12.2
2018-10-21T11:43:02.190Z,12.13
2018-10-21T11:44:02.349Z,12.15
2018-10-21T11:45:02.348Z,12
2018-10-21T11:46:02.635Z,11.94
2018-10-21T11:47:02.067Z,11.79
2018-10-21T11:48:02.055Z,11.79
2018-10-21T11:49:02.409Z,11.75
2018-10-21T11:50:02.032Z,11.68
2018-10-21T11:51:02.287Z,11.67
2018-10-21T11:52:02.384Z,11.66
2018-10-21T11:53:02.016Z,11.57
2018-10-21T11:54:02.253Z,11.51
2018-10-21T11:55:02.051Z,11.45
2018-10-21T11:56:02.241Z,11.34
2018-10-21T11:57:02.234Z,11.21
2018-10-21T11:58:02.344Z,11.06
2018-10-21T11:59:01.958Z,11.2
2018-10-21T12:00:01.688Z,11.13
2018-10-21T12:01:02.305Z,11.1
2018-10-21T12:02:01.929Z,11.12
2018-10-21T12:03:02.170Z,11.2
2018-10-21T12:04:01.995Z,11.28
2018-10-21T12:05:02.162Z,11.39
2018-10-21T12:06:02.145Z,11.49
2018-10-21T12:07:01.952Z,11.39
2018-10-21T12:08:02.124Z,11.49
2018-10-21T12:09:02.111Z,11.49
2018-10-21T12:10:02.244Z,11.56
2018-10-21T12:11:02.098Z,11.53
2018-10-21T12:12:01.826Z,11.57
2018-10-21T12:13:02.212Z,11.52
2018-10-21T12:14:02.064Z,11.59
2018-10-21T12:15:02.050Z,11.61
2018-10-21T12:16:02.190Z,11.63
2018-10-21T12:17:02.038Z,11.7
2018-10-21T12:18:01.769Z,11.75
2018-10-21T12:19:01.880Z,11.63
2018-10-21T12:20:02.439Z,11.71
2018-10-21T12:21:01.744Z,11.71
2018-10-21T12:22:01.838Z,11.66
2018-10-21T12:23:02.319Z,11.63
2018-10-21T12:24:01.711Z,11.79
2018-10-21T12:25:02.035Z,11.78
2018-10-21T12:26:01.954Z,11.75
2018-10-21T12:27:01.679Z,11.75
2018-10-21T12:28:02.115Z,11.82
2018-10-21T12:29:02.077Z,11.82
2018-10-21T12:30:01.908Z,11.78
2018-10-21T12:31:02.075Z,11.82
2018-10-21T12:32:01.899Z,11.85
2018-10-21T12:33:01.881Z,11.85
2018-10-21T12:34:01.726Z,11.85
2018-10-21T12:35:01.974Z,11.88
2018-10-21T12:36:01.853Z,11.88
2018-10-21T12:37:01.976Z,11.85
2018-10-21T12:38:01.577Z,11.89
2018-10-21T12:39:01.856Z,11.84
2018-10-21T12:40:01.968Z,11.94
2018-10-21T12:41:01.894Z,11.82
2018-10-21T12:42:01.549Z,11.78
2018-10-21T12:43:01.644Z,11.86
2018-10-21T12:44:01.783Z,11.85
2018-10-21T12:45:01.513Z,11.78
2018-10-21T12:46:01.940Z,11.82
2018-10-21T12:47:01.879Z,11.94
2018-10-21T12:48:01.486Z,11.85
2018-10-21T12:49:01.875Z,11.76
2018-10-21T12:50:01.723Z,11.85
2018-10-21T12:51:01.714Z,11.81
2018-10-21T12:52:01.264Z,11.78
2018-10-21T12:53:01.564Z,11.78
2018-10-21T12:54:01.956Z,11.78
2018-10-21T12:55:01.825Z,11.75
2018-10-21T12:56:01.662Z,11.67
2018-10-21T12:57:01.400Z,11.66
2018-10-21T12:58:01.526Z,11.63
2018-10-21T12:59:01.638Z,11.73
2018-10-21T13:00:01.625Z,11.7
2018-10-21T13:01:01.491Z,11.71
2018-10-21T13:02:01.617Z,11.68
2018-10-21T13:03:01.605Z,11.67
2018-10-21T13:04:01.456Z,11.71
2018-10-21T13:05:01.588Z,11.66
2018-10-21T13:06:01.573Z,11.68
2018-10-21T13:07:01.077Z,11.7
2018-10-21T13:08:01.551Z,11.81
2018-10-21T13:09:01.288Z,11.78
2018-10-21T13:10:01.643Z,11.76
2018-10-21T13:11:01.010Z,11.79
2018-10-21T13:12:01.520Z,11.79